sensor_id;sensor_type;location;lat;lon;timestamp;P1;durP1;ratioP1;P2;durP2;ratioP2
83199;SDS011;73092;49.132;8.920;2024-02-15T00:00:04;25.25;;;10.85;;
83199;SDS011;73092;49.132;8.920;2024-02-15T00:02:30;22.05;;;9.38;;
83199;SDS011;73092;49.132;8.920;2024-02-15T00:04:56;18.50;;;7.10;;
83199;SDS011;73092;49.132;8.920;2024-02-15T00:07:21;12.95;;;6.45;;
83199;SDS011;73092;49.132;8.920;2024-02-15T00:09:48;12.27;;;7.22;;
83199;SDS011;73092;49.132;8.920;2024-02-15T00:12:13;11.82;;;6.70;;
83199;SDS011;73092;49.132;8.920;2024-02-15T00:14:39;13.75;;;7.00;;
83199;SDS011;73092;49.132;8.920;2024-02-15T00:17:04;10.35;;;6.13;;
83199;SDS011;73092;49.132;8.920;2024-02-15T00:19:30;14.75;;;6.28;;
83199;SDS011;73092;49.132;8.920;2024-02-15T00:21:56;11.57;;;6.18;;
83199;SDS011;73092;49.132;8.920;2024-02-15T00:24:22;10.93;;;5.93;;
83199;SDS011;73092;49.132;8.920;2024-02-15T00:26:49;12.38;;;5.95;;
83199;SDS011;73092;49.132;8.920;2024-02-15T00:29:14;12.45;;;5.95;;
83199;SDS011;73092;49.132;8.920;2024-02-15T00:31:40;9.60;;;5.13;;
83199;SDS011;73092;49.132;8.920;2024-02-15T00:34:05;9.97;;;4.80;;
83199;SDS011;73092;49.132;8.920;2024-02-15T00:36:31;11.45;;;6.05;;
83199;SDS011;73092;49.132;8.920;2024-02-15T00:39:00;11.68;;;6.22;;
83199;SDS011;73092;49.132;8.920;2024-02-15T00:41:26;12.57;;;7.32;;
83199;SDS011;73092;49.132;8.920;2024-02-15T00:43:52;14.75;;;7.28;;
83199;SDS011;73092;49.132;8.920;2024-02-15T00:46:18;9.77;;;6.73;;
83199;SDS011;73092;49.132;8.920;2024-02-15T00:48:43;11.48;;;6.88;;
83199;SDS011;73092;49.132;8.920;2024-02-15T00:51:09;12.65;;;6.80;;
83199;SDS011;73092;49.132;8.920;2024-02-15T00:53:34;12.23;;;6.03;;
83199;SDS011;73092;49.132;8.920;2024-02-15T00:55:59;19.87;;;6.50;;
83199;SDS011;73092;49.132;8.920;2024-02-15T00:58:25;7.43;;;4.80;;
83199;SDS011;73092;49.132;8.920;2024-02-15T01:00:52;9.27;;;4.95;;
83199;SDS011;73092;49.132;8.920;2024-02-15T01:03:18;12.07;;;5.10;;
83199;SDS011;73092;49.132;8.920;2024-02-15T01:05:44;9.20;;;5.85;;
83199;SDS011;73092;49.132;8.920;2024-02-15T01:08:10;13.63;;;5.45;;
83199;SDS011;73092;49.132;8.920;2024-02-15T01:10:36;7.63;;;4.47;;
83199;SDS011;73092;49.132;8.920;2024-02-15T01:13:01;6.60;;;4.63;;
83199;SDS011;73092;49.132;8.920;2024-02-15T01:15:27;8.93;;;5.18;;
83199;SDS011;73092;49.132;8.920;2024-02-15T01:17:52;10.37;;;5.40;;
83199;SDS011;73092;49.132;8.920;2024-02-15T01:20:17;5.73;;;3.90;;
83199;SDS011;73092;49.132;8.920;2024-02-15T01:22:43;8.23;;;4.28;;
83199;SDS011;73092;49.132;8.920;2024-02-15T01:25:09;10.90;;;5.28;;
83199;SDS011;73092;49.132;8.920;2024-02-15T01:27:35;7.97;;;4.78;;
83199;SDS011;73092;49.132;8.920;2024-02-15T01:30:01;8.20;;;4.43;;
83199;SDS011;73092;49.132;8.920;2024-02-15T01:32:26;11.02;;;4.32;;
83199;SDS011;73092;49.132;8.920;2024-02-15T01:34:51;9.47;;;4.57;;
83199;SDS011;73092;49.132;8.920;2024-02-15T01:37:19;9.70;;;4.60;;
83199;SDS011;73092;49.132;8.920;2024-02-15T01:39:47;9.13;;;4.63;;
83199;SDS011;73092;49.132;8.920;2024-02-15T01:42:13;14.40;;;5.32;;
83199;SDS011;73092;49.132;8.920;2024-02-15T01:44:39;10.55;;;5.18;;
83199;SDS011;73092;49.132;8.920;2024-02-15T01:47:09;11.20;;;6.57;;
83199;SDS011;73092;49.132;8.920;2024-02-15T01:49:36;10.30;;;5.35;;
83199;SDS011;73092;49.132;8.920;2024-02-15T01:52:01;11.32;;;6.50;;
83199;SDS011;73092;49.132;8.920;2024-02-15T01:54:29;15.95;;;8.57;;
83199;SDS011;73092;49.132;8.920;2024-02-15T01:56:55;12.13;;;7.63;;
83199;SDS011;73092;49.132;8.920;2024-02-15T01:59:22;9.63;;;7.18;;
83199;SDS011;73092;49.132;8.920;2024-02-15T02:01:48;18.23;;;8.18;;
83199;SDS011;73092;49.132;8.920;2024-02-15T02:04:14;12.52;;;6.55;;
83199;SDS011;73092;49.132;8.920;2024-02-15T02:06:40;8.55;;;4.40;;
83199;SDS011;73092;49.132;8.920;2024-02-15T02:09:06;8.38;;;5.05;;
83199;SDS011;73092;49.132;8.920;2024-02-15T02:11:35;7.13;;;4.70;;
83199;SDS011;73092;49.132;8.920;2024-02-15T02:14:00;5.53;;;3.87;;
83199;SDS011;73092;49.132;8.920;2024-02-15T02:16:26;7.33;;;4.50;;
83199;SDS011;73092;49.132;8.920;2024-02-15T02:18:56;10.38;;;4.68;;
83199;SDS011;73092;49.132;8.920;2024-02-15T02:21:22;15.05;;;4.00;;
83199;SDS011;73092;49.132;8.920;2024-02-15T02:23:52;5.88;;;3.65;;
83199;SDS011;73092;49.132;8.920;2024-02-15T02:26:20;10.82;;;4.30;;
83199;SDS011;73092;49.132;8.920;2024-02-15T02:28:47;5.95;;;3.47;;
83199;SDS011;73092;49.132;8.920;2024-02-15T02:31:13;11.32;;;5.25;;
83199;SDS011;73092;49.132;8.920;2024-02-15T02:33:39;8.80;;;4.38;;
83199;SDS011;73092;49.132;8.920;2024-02-15T02:36:05;7.72;;;3.88;;
83199;SDS011;73092;49.132;8.920;2024-02-15T02:38:34;6.80;;;4.40;;
83199;SDS011;73092;49.132;8.920;2024-02-15T02:41:02;8.38;;;3.90;;
83199;SDS011;73092;49.132;8.920;2024-02-15T02:43:28;7.32;;;3.75;;
83199;SDS011;73092;49.132;8.920;2024-02-15T02:45:53;6.10;;;3.77;;
83199;SDS011;73092;49.132;8.920;2024-02-15T02:48:18;10.90;;;3.90;;
83199;SDS011;73092;49.132;8.920;2024-02-15T02:50:44;7.18;;;3.92;;
83199;SDS011;73092;49.132;8.920;2024-02-15T02:53:09;8.55;;;3.78;;
83199;SDS011;73092;49.132;8.920;2024-02-15T02:55:35;11.30;;;3.83;;
83199;SDS011;73092;49.132;8.920;2024-02-15T02:58:01;17.08;;;4.32;;
83199;SDS011;73092;49.132;8.920;2024-02-15T03:00:27;8.13;;;3.25;;
83199;SDS011;73092;49.132;8.920;2024-02-15T03:02:52;7.43;;;3.80;;
83199;SDS011;73092;49.132;8.920;2024-02-15T03:05:21;6.40;;;3.88;;
83199;SDS011;73092;49.132;8.920;2024-02-15T03:07:47;7.70;;;3.77;;
83199;SDS011;73092;49.132;8.920;2024-02-15T03:10:12;6.90;;;3.40;;
83199;SDS011;73092;49.132;8.920;2024-02-15T03:12:38;3.92;;;3.33;;
83199;SDS011;73092;49.132;8.920;2024-02-15T03:15:05;8.75;;;4.28;;
83199;SDS011;73092;49.132;8.920;2024-02-15T03:17:37;9.35;;;4.13;;
83199;SDS011;73092;49.132;8.920;2024-02-15T03:22:34;10.00;;;3.70;;
83199;SDS011;73092;49.132;8.920;2024-02-15T03:24:59;8.23;;;4.70;;
83199;SDS011;73092;49.132;8.920;2024-02-15T03:27:24;10.23;;;4.80;;
83199;SDS011;73092;49.132;8.920;2024-02-15T03:29:50;10.02;;;4.50;;
83199;SDS011;73092;49.132;8.920;2024-02-15T03:32:17;12.52;;;4.70;;
83199;SDS011;73092;49.132;8.920;2024-02-15T03:34:43;6.50;;;3.80;;
83199;SDS011;73092;49.132;8.920;2024-02-15T03:37:08;7.00;;;4.32;;
83199;SDS011;73092;49.132;8.920;2024-02-15T03:39:34;6.85;;;5.15;;
83199;SDS011;73092;49.132;8.920;2024-02-15T03:42:00;12.17;;;6.00;;
83199;SDS011;73092;49.132;8.920;2024-02-15T03:44:25;9.43;;;5.53;;
83199;SDS011;73092;49.132;8.920;2024-02-15T03:46:53;11.00;;;6.50;;
83199;SDS011;73092;49.132;8.920;2024-02-15T03:49:20;10.85;;;6.03;;
83199;SDS011;73092;49.132;8.920;2024-02-15T03:51:46;10.70;;;6.00;;
83199;SDS011;73092;49.132;8.920;2024-02-15T03:54:13;10.88;;;5.75;;
83199;SDS011;73092;49.132;8.920;2024-02-15T03:56:48;12.10;;;5.50;;
83199;SDS011;73092;49.132;8.920;2024-02-15T03:59:20;9.93;;;5.45;;
83199;SDS011;73092;49.132;8.920;2024-02-15T04:01:50;10.02;;;5.57;;
83199;SDS011;73092;49.132;8.920;2024-02-15T04:04:15;10.05;;;4.38;;
83199;SDS011;73092;49.132;8.920;2024-02-15T04:06:41;14.80;;;5.37;;
83199;SDS011;73092;49.132;8.920;2024-02-15T04:09:07;10.88;;;4.53;;
83199;SDS011;73092;49.132;8.920;2024-02-15T04:11:33;10.10;;;5.15;;
83199;SDS011;73092;49.132;8.920;2024-02-15T04:13:58;11.55;;;5.05;;
83199;SDS011;73092;49.132;8.920;2024-02-15T04:16:24;11.57;;;5.25;;
83199;SDS011;73092;49.132;8.920;2024-02-15T04:18:50;7.57;;;4.57;;
83199;SDS011;73092;49.132;8.920;2024-02-15T04:21:16;9.68;;;4.40;;
83199;SDS011;73092;49.132;8.920;2024-02-15T04:23:45;6.47;;;4.53;;
83199;SDS011;73092;49.132;8.920;2024-02-15T04:26:11;6.00;;;3.85;;
83199;SDS011;73092;49.132;8.920;2024-02-15T04:28:38;7.50;;;5.03;;
83199;SDS011;73092;49.132;8.920;2024-02-15T04:31:04;13.27;;;5.18;;
83199;SDS011;73092;49.132;8.920;2024-02-15T04:33:33;11.13;;;5.47;;
83199;SDS011;73092;49.132;8.920;2024-02-15T04:35:58;8.65;;;5.10;;
83199;SDS011;73092;49.132;8.920;2024-02-15T04:38:27;14.40;;;6.97;;
83199;SDS011;73092;49.132;8.920;2024-02-15T04:40:52;11.27;;;5.85;;
83199;SDS011;73092;49.132;8.920;2024-02-15T04:43:18;11.13;;;5.20;;
83199;SDS011;73092;49.132;8.920;2024-02-15T04:45:44;7.57;;;5.03;;
83199;SDS011;73092;49.132;8.920;2024-02-15T04:48:10;11.95;;;5.10;;
83199;SDS011;73092;49.132;8.920;2024-02-15T04:50:38;9.70;;;5.60;;
83199;SDS011;73092;49.132;8.920;2024-02-15T04:53:04;8.00;;;5.30;;
83199;SDS011;73092;49.132;8.920;2024-02-15T04:55:32;10.90;;;5.25;;
83199;SDS011;73092;49.132;8.920;2024-02-15T04:57:57;8.23;;;5.07;;
83199;SDS011;73092;49.132;8.920;2024-02-15T05:00:23;9.40;;;5.27;;
83199;SDS011;73092;49.132;8.920;2024-02-15T05:02:50;15.85;;;4.97;;
83199;SDS011;73092;49.132;8.920;2024-02-15T05:05:15;8.80;;;4.70;;
83199;SDS011;73092;49.132;8.920;2024-02-15T05:07:41;7.63;;;4.53;;
83199;SDS011;73092;49.132;8.920;2024-02-15T05:10:08;11.95;;;5.38;;
83199;SDS011;73092;49.132;8.920;2024-02-15T05:12:33;7.78;;;5.15;;
83199;SDS011;73092;49.132;8.920;2024-02-15T05:14:59;10.77;;;4.22;;
83199;SDS011;73092;49.132;8.920;2024-02-15T05:17:25;7.85;;;4.85;;
83199;SDS011;73092;49.132;8.920;2024-02-15T05:19:50;7.40;;;4.20;;
83199;SDS011;73092;49.132;8.920;2024-02-15T05:22:16;14.70;;;5.40;;
83199;SDS011;73092;49.132;8.920;2024-02-15T05:24:41;15.45;;;5.65;;
83199;SDS011;73092;49.132;8.920;2024-02-15T05:27:06;8.60;;;4.03;;
83199;SDS011;73092;49.132;8.920;2024-02-15T05:29:32;7.00;;;3.93;;
83199;SDS011;73092;49.132;8.920;2024-02-15T05:32:01;11.07;;;4.15;;
83199;SDS011;73092;49.132;8.920;2024-02-15T05:34:27;12.60;;;3.75;;
83199;SDS011;73092;49.132;8.920;2024-02-15T05:36:54;9.88;;;3.97;;
83199;SDS011;73092;49.132;8.920;2024-02-15T05:39:19;18.85;;;5.70;;
83199;SDS011;73092;49.132;8.920;2024-02-15T05:41:47;11.57;;;6.05;;
83199;SDS011;73092;49.132;8.920;2024-02-15T05:44:13;10.65;;;4.85;;
83199;SDS011;73092;49.132;8.920;2024-02-15T05:46:45;12.57;;;4.40;;
83199;SDS011;73092;49.132;8.920;2024-02-15T05:49:10;7.50;;;4.85;;
83199;SDS011;73092;49.132;8.920;2024-02-15T05:51:40;9.63;;;4.72;;
83199;SDS011;73092;49.132;8.920;2024-02-15T05:54:06;8.82;;;4.55;;
83199;SDS011;73092;49.132;8.920;2024-02-15T05:56:31;9.13;;;3.83;;
83199;SDS011;73092;49.132;8.920;2024-02-15T05:58:56;9.37;;;3.70;;
83199;SDS011;73092;49.132;8.920;2024-02-15T06:01:27;7.40;;;4.43;;
83199;SDS011;73092;49.132;8.920;2024-02-15T06:03:54;7.03;;;4.40;;
83199;SDS011;73092;49.132;8.920;2024-02-15T06:06:21;12.93;;;4.32;;
83199;SDS011;73092;49.132;8.920;2024-02-15T06:08:46;8.23;;;3.75;;
83199;SDS011;73092;49.132;8.920;2024-02-15T06:11:12;9.05;;;4.05;;
83199;SDS011;73092;49.132;8.920;2024-02-15T06:13:37;8.20;;;3.78;;
83199;SDS011;73092;49.132;8.920;2024-02-15T06:16:03;10.15;;;4.00;;
83199;SDS011;73092;49.132;8.920;2024-02-15T06:18:34;9.00;;;3.75;;
83199;SDS011;73092;49.132;8.920;2024-02-15T06:20:59;9.65;;;4.00;;
83199;SDS011;73092;49.132;8.920;2024-02-15T06:23:25;11.15;;;4.00;;
83199;SDS011;73092;49.132;8.920;2024-02-15T06:25:53;9.35;;;4.22;;
83199;SDS011;73092;49.132;8.920;2024-02-15T06:28:19;10.15;;;3.70;;
83199;SDS011;73092;49.132;8.920;2024-02-15T06:31:03;9.98;;;4.32;;
83199;SDS011;73092;49.132;8.920;2024-02-15T06:33:47;6.85;;;3.22;;
83199;SDS011;73092;49.132;8.920;2024-02-15T06:36:31;17.85;;;3.80;;
83199;SDS011;73092;49.132;8.920;2024-02-15T06:39:15;7.90;;;3.80;;
83199;SDS011;73092;49.132;8.920;2024-02-15T06:41:59;6.18;;;3.30;;
83199;SDS011;73092;49.132;8.920;2024-02-15T06:44:26;8.77;;;4.10;;
83199;SDS011;73092;49.132;8.920;2024-02-15T06:46:51;10.15;;;4.80;;
83199;SDS011;73092;49.132;8.920;2024-02-15T06:49:17;13.93;;;6.63;;
83199;SDS011;73092;49.132;8.920;2024-02-15T06:51:42;10.10;;;5.30;;
83199;SDS011;73092;49.132;8.920;2024-02-15T06:54:08;11.20;;;4.50;;
83199;SDS011;73092;49.132;8.920;2024-02-15T06:56:37;9.90;;;3.67;;
83199;SDS011;73092;49.132;8.920;2024-02-15T06:59:03;11.20;;;4.15;;
83199;SDS011;73092;49.132;8.920;2024-02-15T07:01:28;7.70;;;4.20;;
83199;SDS011;73092;49.132;8.920;2024-02-15T07:03:54;12.05;;;4.38;;
83199;SDS011;73092;49.132;8.920;2024-02-15T07:06:20;7.60;;;4.38;;
83199;SDS011;73092;49.132;8.920;2024-02-15T07:08:46;5.97;;;3.75;;
83199;SDS011;73092;49.132;8.920;2024-02-15T07:11:12;4.85;;;2.92;;
83199;SDS011;73092;49.132;8.920;2024-02-15T07:13:38;6.60;;;3.40;;
83199;SDS011;73092;49.132;8.920;2024-02-15T07:16:07;5.67;;;3.13;;
83199;SDS011;73092;49.132;8.920;2024-02-15T07:18:33;8.45;;;2.88;;
83199;SDS011;73092;49.132;8.920;2024-02-15T07:20:58;10.98;;;3.35;;
83199;SDS011;73092;49.132;8.920;2024-02-15T07:25:51;9.48;;;4.28;;
83199;SDS011;73092;49.132;8.920;2024-02-15T07:28:18;12.55;;;3.75;;
83199;SDS011;73092;49.132;8.920;2024-02-15T07:30:45;8.77;;;3.67;;
83199;SDS011;73092;49.132;8.920;2024-02-15T07:33:13;8.70;;;3.85;;
83199;SDS011;73092;49.132;8.920;2024-02-15T07:35:41;14.90;;;4.93;;
83199;SDS011;73092;49.132;8.920;2024-02-15T07:38:08;26.05;;;7.13;;
83199;SDS011;73092;49.132;8.920;2024-02-15T07:40:33;20.13;;;6.40;;
83199;SDS011;73092;49.132;8.920;2024-02-15T07:42:58;27.53;;;11.40;;
83199;SDS011;73092;49.132;8.920;2024-02-15T07:45:24;26.43;;;12.60;;
83199;SDS011;73092;49.132;8.920;2024-02-15T07:47:49;21.30;;;7.93;;
83199;SDS011;73092;49.132;8.920;2024-02-15T07:50:15;12.90;;;7.73;;
83199;SDS011;73092;49.132;8.920;2024-02-15T07:52:45;16.67;;;8.25;;
83199;SDS011;73092;49.132;8.920;2024-02-15T07:55:11;18.00;;;7.78;;
83199;SDS011;73092;49.132;8.920;2024-02-15T07:57:37;12.43;;;8.68;;
83199;SDS011;73092;49.132;8.920;2024-02-15T08:00:03;22.42;;;9.40;;
83199;SDS011;73092;49.132;8.920;2024-02-15T08:02:35;13.75;;;8.25;;
83199;SDS011;73092;49.132;8.920;2024-02-15T08:05:00;22.30;;;8.07;;
83199;SDS011;73092;49.132;8.920;2024-02-15T08:07:29;16.70;;;7.45;;
83199;SDS011;73092;49.132;8.920;2024-02-15T08:09:58;20.30;;;9.52;;
83199;SDS011;73092;49.132;8.920;2024-02-15T08:12:24;17.02;;;9.93;;
83199;SDS011;73092;49.132;8.920;2024-02-15T08:14:51;16.63;;;7.28;;
83199;SDS011;73092;49.132;8.920;2024-02-15T08:17:17;15.02;;;7.32;;
83199;SDS011;73092;49.132;8.920;2024-02-15T08:19:42;26.50;;;9.00;;
83199;SDS011;73092;49.132;8.920;2024-02-15T08:22:07;16.63;;;9.23;;
83199;SDS011;73092;49.132;8.920;2024-02-15T08:24:33;17.40;;;9.17;;
83199;SDS011;73092;49.132;8.920;2024-02-15T08:26:58;17.47;;;8.53;;
83199;SDS011;73092;49.132;8.920;2024-02-15T08:29:24;15.27;;;7.65;;
83199;SDS011;73092;49.132;8.920;2024-02-15T08:31:50;15.95;;;9.65;;
83199;SDS011;73092;49.132;8.920;2024-02-15T08:34:15;12.93;;;6.30;;
83199;SDS011;73092;49.132;8.920;2024-02-15T08:36:43;16.00;;;6.90;;
83199;SDS011;73092;49.132;8.920;2024-02-15T08:39:09;16.20;;;6.65;;
83199;SDS011;73092;49.132;8.920;2024-02-15T08:41:38;19.38;;;6.85;;
83199;SDS011;73092;49.132;8.920;2024-02-15T08:44:04;10.40;;;6.90;;
83199;SDS011;73092;49.132;8.920;2024-02-15T08:46:34;9.35;;;6.03;;
83199;SDS011;73092;49.132;8.920;2024-02-15T08:49:01;16.65;;;5.65;;
83199;SDS011;73092;49.132;8.920;2024-02-15T08:51:28;9.00;;;5.88;;
83199;SDS011;73092;49.132;8.920;2024-02-15T08:53:55;19.42;;;6.95;;
83199;SDS011;73092;49.132;8.920;2024-02-15T08:56:20;30.73;;;9.32;;
83199;SDS011;73092;49.132;8.920;2024-02-15T09:01:13;17.50;;;6.67;;
83199;SDS011;73092;49.132;8.920;2024-02-15T09:03:39;16.15;;;7.97;;
83199;SDS011;73092;49.132;8.920;2024-02-15T09:06:04;14.80;;;8.77;;
83199;SDS011;73092;49.132;8.920;2024-02-15T09:08:30;16.48;;;7.47;;
83199;SDS011;73092;49.132;8.920;2024-02-15T09:10:55;18.52;;;8.52;;
83199;SDS011;73092;49.132;8.920;2024-02-15T09:15:48;12.70;;;6.00;;
83199;SDS011;73092;49.132;8.920;2024-02-15T09:18:14;17.33;;;6.75;;
83199;SDS011;73092;49.132;8.920;2024-02-15T09:20:39;11.20;;;4.80;;
83199;SDS011;73092;49.132;8.920;2024-02-15T09:23:09;12.60;;;3.88;;
83199;SDS011;73092;49.132;8.920;2024-02-15T09:25:40;8.77;;;3.40;;
83199;SDS011;73092;49.132;8.920;2024-02-15T09:28:08;7.85;;;3.47;;
83199;SDS011;73092;49.132;8.920;2024-02-15T09:30:34;12.17;;;4.40;;
83199;SDS011;73092;49.132;8.920;2024-02-15T09:33:00;8.07;;;3.58;;
83199;SDS011;73092;49.132;8.920;2024-02-15T09:35:29;9.15;;;3.78;;
83199;SDS011;73092;49.132;8.920;2024-02-15T09:37:55;10.98;;;4.18;;
83199;SDS011;73092;49.132;8.920;2024-02-15T09:40:21;8.77;;;3.22;;
83199;SDS011;73092;49.132;8.920;2024-02-15T09:42:53;6.53;;;3.05;;
83199;SDS011;73092;49.132;8.920;2024-02-15T09:45:19;9.52;;;3.58;;
83199;SDS011;73092;49.132;8.920;2024-02-15T09:47:46;12.93;;;5.57;;
83199;SDS011;73092;49.132;8.920;2024-02-15T09:50:15;14.07;;;7.65;;
83199;SDS011;73092;49.132;8.920;2024-02-15T09:52:45;16.02;;;5.15;;
83199;SDS011;73092;49.132;8.920;2024-02-15T09:55:14;14.60;;;5.05;;
83199;SDS011;73092;49.132;8.920;2024-02-15T09:57:43;7.70;;;5.40;;
83199;SDS011;73092;49.132;8.920;2024-02-15T10:00:10;13.63;;;4.38;;
83199;SDS011;73092;49.132;8.920;2024-02-15T10:02:42;8.20;;;2.88;;
83199;SDS011;73092;49.132;8.920;2024-02-15T10:05:11;5.70;;;2.47;;
83199;SDS011;73092;49.132;8.920;2024-02-15T10:07:40;4.82;;;2.25;;
83199;SDS011;73092;49.132;8.920;2024-02-15T10:12:55;9.82;;;2.53;;
83199;SDS011;73092;49.132;8.920;2024-02-15T10:15:30;8.27;;;2.25;;
83199;SDS011;73092;49.132;8.920;2024-02-15T10:18:00;5.03;;;2.20;;
83199;SDS011;73092;49.132;8.920;2024-02-15T10:20:26;7.35;;;2.13;;
83199;SDS011;73092;49.132;8.920;2024-02-15T10:23:14;4.78;;;2.22;;
83199;SDS011;73092;49.132;8.920;2024-02-15T10:25:42;4.28;;;2.33;;
83199;SDS011;73092;49.132;8.920;2024-02-15T10:28:09;6.95;;;2.60;;
83199;SDS011;73092;49.132;8.920;2024-02-15T10:30:41;12.57;;;3.13;;
83199;SDS011;73092;49.132;8.920;2024-02-15T10:33:10;6.72;;;2.17;;
83199;SDS011;73092;49.132;8.920;2024-02-15T10:35:43;3.65;;;1.77;;
83199;SDS011;73092;49.132;8.920;2024-02-15T10:38:10;5.85;;;2.70;;
83199;SDS011;73092;49.132;8.920;2024-02-15T10:40:36;5.32;;;2.17;;
83199;SDS011;73092;49.132;8.920;2024-02-15T10:43:03;7.35;;;2.22;;
83199;SDS011;73092;49.132;8.920;2024-02-15T10:45:34;6.28;;;2.30;;
83199;SDS011;73092;49.132;8.920;2024-02-15T10:48:01;6.45;;;2.05;;
83199;SDS011;73092;49.132;8.920;2024-02-15T10:50:30;7.65;;;2.03;;
83199;SDS011;73092;49.132;8.920;2024-02-15T10:52:56;6.50;;;2.20;;
83199;SDS011;73092;49.132;8.920;2024-02-15T10:55:31;5.07;;;2.30;;
83199;SDS011;73092;49.132;8.920;2024-02-15T10:58:03;8.15;;;2.20;;
83199;SDS011;73092;49.132;8.920;2024-02-15T11:00:32;5.10;;;2.47;;
83199;SDS011;73092;49.132;8.920;2024-02-15T11:03:02;14.75;;;2.03;;
83199;SDS011;73092;49.132;8.920;2024-02-15T11:05:36;6.45;;;2.13;;
83199;SDS011;73092;49.132;8.920;2024-02-15T11:08:07;5.63;;;2.45;;
83199;SDS011;73092;49.132;8.920;2024-02-15T11:10:34;7.03;;;2.30;;
83199;SDS011;73092;49.132;8.920;2024-02-15T11:13:01;8.57;;;2.13;;
83199;SDS011;73092;49.132;8.920;2024-02-15T11:15:46;6.22;;;2.20;;
83199;SDS011;73092;49.132;8.920;2024-02-15T11:21:52;4.20;;;1.90;;
83199;SDS011;73092;49.132;8.920;2024-02-15T11:24:25;3.88;;;1.80;;
83199;SDS011;73092;49.132;8.920;2024-02-15T11:26:52;5.40;;;2.10;;
83199;SDS011;73092;49.132;8.920;2024-02-15T11:40:20;5.55;;;2.53;;
83199;SDS011;73092;49.132;8.920;2024-02-15T11:42:48;6.78;;;2.28;;
83199;SDS011;73092;49.132;8.920;2024-02-15T11:45:18;4.05;;;1.98;;
83199;SDS011;73092;49.132;8.920;2024-02-15T11:47:44;6.28;;;2.00;;
83199;SDS011;73092;49.132;8.920;2024-02-15T11:50:14;3.28;;;2.08;;
83199;SDS011;73092;49.132;8.920;2024-02-15T11:52:43;7.53;;;2.72;;
83199;SDS011;73092;49.132;8.920;2024-02-15T11:55:14;5.82;;;2.78;;
83199;SDS011;73092;49.132;8.920;2024-02-15T11:57:44;7.03;;;3.00;;
83199;SDS011;73092;49.132;8.920;2024-02-15T12:00:25;7.13;;;3.25;;
83199;SDS011;73092;49.132;8.920;2024-02-15T12:03:10;5.38;;;2.42;;
83199;SDS011;73092;49.132;8.920;2024-02-15T12:05:56;4.45;;;3.00;;
83199;SDS011;73092;49.132;8.920;2024-02-15T12:08:43;10.57;;;3.03;;
83199;SDS011;73092;49.132;8.920;2024-02-15T12:11:28;8.90;;;2.35;;
83199;SDS011;73092;49.132;8.920;2024-02-15T12:14:12;8.27;;;2.80;;
83199;SDS011;73092;49.132;8.920;2024-02-15T12:17:02;6.35;;;2.38;;
83199;SDS011;73092;49.132;8.920;2024-02-15T12:19:50;9.60;;;2.40;;
83199;SDS011;73092;49.132;8.920;2024-02-15T12:22:32;8.57;;;2.03;;
83199;SDS011;73092;49.132;8.920;2024-02-15T12:25:00;6.93;;;2.70;;
83199;SDS011;73092;49.132;8.920;2024-02-15T12:27:37;6.97;;;2.58;;
83199;SDS011;73092;49.132;8.920;2024-02-15T12:30:04;7.57;;;2.72;;
83199;SDS011;73092;49.132;8.920;2024-02-15T12:32:31;6.93;;;2.35;;
83199;SDS011;73092;49.132;8.920;2024-02-15T12:35:10;8.07;;;2.38;;
83199;SDS011;73092;49.132;8.920;2024-02-15T12:37:42;8.07;;;2.05;;
83199;SDS011;73092;49.132;8.920;2024-02-15T12:42:40;6.50;;;2.20;;
83199;SDS011;73092;49.132;8.920;2024-02-15T12:45:07;13.25;;;3.15;;
83199;SDS011;73092;49.132;8.920;2024-02-15T12:47:39;6.90;;;2.20;;
83199;SDS011;73092;49.132;8.920;2024-02-15T12:50:14;10.30;;;2.30;;
83199;SDS011;73092;49.132;8.920;2024-02-15T12:52:47;2.47;;;1.42;;
83199;SDS011;73092;49.132;8.920;2024-02-15T12:57:40;4.00;;;1.90;;
83199;SDS011;73092;49.132;8.920;2024-02-15T13:00:08;6.22;;;1.88;;
83199;SDS011;73092;49.132;8.920;2024-02-15T13:02:42;6.22;;;3.00;;
83199;SDS011;73092;49.132;8.920;2024-02-15T13:05:08;4.90;;;2.53;;
83199;SDS011;73092;49.132;8.920;2024-02-15T13:07:34;6.82;;;2.42;;
83199;SDS011;73092;49.132;8.920;2024-02-15T13:10:01;3.20;;;2.40;;
83199;SDS011;73092;49.132;8.920;2024-02-15T13:12:26;7.50;;;2.60;;
83199;SDS011;73092;49.132;8.920;2024-02-15T13:14:53;5.47;;;2.22;;
83199;SDS011;73092;49.132;8.920;2024-02-15T13:17:19;7.18;;;2.25;;
83199;SDS011;73092;49.132;8.920;2024-02-15T13:19:48;4.97;;;2.15;;
83199;SDS011;73092;49.132;8.920;2024-02-15T13:22:14;4.25;;;2.20;;
83199;SDS011;73092;49.132;8.920;2024-02-15T13:24:41;3.33;;;2.30;;
83199;SDS011;73092;49.132;8.920;2024-02-15T13:27:07;7.78;;;3.63;;
83199;SDS011;73092;49.132;8.920;2024-02-15T13:29:37;5.13;;;2.13;;
83199;SDS011;73092;49.132;8.920;2024-02-15T13:32:03;4.82;;;2.50;;
83199;SDS011;73092;49.132;8.920;2024-02-15T13:34:28;6.63;;;2.50;;
83199;SDS011;73092;49.132;8.920;2024-02-15T13:36:54;9.77;;;2.43;;
83199;SDS011;73092;49.132;8.920;2024-02-15T13:39:20;4.75;;;2.00;;
83199;SDS011;73092;49.132;8.920;2024-02-15T13:41:46;6.30;;;2.05;;
83199;SDS011;73092;49.132;8.920;2024-02-15T13:44:12;5.90;;;2.22;;
83199;SDS011;73092;49.132;8.920;2024-02-15T13:46:39;11.77;;;2.40;;
83199;SDS011;73092;49.132;8.920;2024-02-15T13:49:05;11.93;;;2.50;;
83199;SDS011;73092;49.132;8.920;2024-02-15T13:51:30;5.95;;;2.70;;
83199;SDS011;73092;49.132;8.920;2024-02-15T13:53:56;7.63;;;2.22;;
83199;SDS011;73092;49.132;8.920;2024-02-15T13:56:21;3.80;;;2.30;;
83199;SDS011;73092;49.132;8.920;2024-02-15T13:58:47;5.65;;;2.30;;
83199;SDS011;73092;49.132;8.920;2024-02-15T14:01:12;7.95;;;2.80;;
83199;SDS011;73092;49.132;8.920;2024-02-15T14:03:39;8.20;;;2.47;;
83199;SDS011;73092;49.132;8.920;2024-02-15T14:06:06;3.95;;;2.42;;
83199;SDS011;73092;49.132;8.920;2024-02-15T14:08:32;5.87;;;2.67;;
83199;SDS011;73092;49.132;8.920;2024-02-15T14:10:57;4.80;;;2.38;;
83199;SDS011;73092;49.132;8.920;2024-02-15T14:13:22;9.25;;;2.63;;
83199;SDS011;73092;49.132;8.920;2024-02-15T14:15:48;9.77;;;2.33;;
83199;SDS011;73092;49.132;8.920;2024-02-15T14:18:13;4.20;;;2.20;;
83199;SDS011;73092;49.132;8.920;2024-02-15T14:20:39;5.90;;;2.53;;
83199;SDS011;73092;49.132;8.920;2024-02-15T14:23:07;7.65;;;2.47;;
83199;SDS011;73092;49.132;8.920;2024-02-15T14:25:38;4.90;;;2.10;;
83199;SDS011;73092;49.132;8.920;2024-02-15T14:28:04;6.28;;;2.45;;
83199;SDS011;73092;49.132;8.920;2024-02-15T14:30:32;7.47;;;2.47;;
83199;SDS011;73092;49.132;8.920;2024-02-15T14:33:17;4.65;;;2.22;;
83199;SDS011;73092;49.132;8.920;2024-02-15T14:35:44;5.00;;;2.25;;
83199;SDS011;73092;49.132;8.920;2024-02-15T14:38:11;9.40;;;2.58;;
83199;SDS011;73092;49.132;8.920;2024-02-15T14:40:38;4.82;;;2.35;;
83199;SDS011;73092;49.132;8.920;2024-02-15T14:43:09;3.83;;;2.40;;
83199;SDS011;73092;49.132;8.920;2024-02-15T14:45:38;13.63;;;3.10;;
83199;SDS011;73092;49.132;8.920;2024-02-15T14:48:08;6.10;;;2.28;;
83199;SDS011;73092;49.132;8.920;2024-02-15T14:50:38;8.13;;;2.63;;
83199;SDS011;73092;49.132;8.920;2024-02-15T14:53:06;7.60;;;2.20;;
83199;SDS011;73092;49.132;8.920;2024-02-15T14:55:34;5.13;;;1.98;;
83199;SDS011;73092;49.132;8.920;2024-02-15T14:58:00;4.32;;;2.20;;
83199;SDS011;73092;49.132;8.920;2024-02-15T15:00:25;11.18;;;2.60;;
83199;SDS011;73092;49.132;8.920;2024-02-15T15:02:52;6.80;;;2.20;;
83199;SDS011;73092;49.132;8.920;2024-02-15T15:05:21;8.65;;;2.40;;
83199;SDS011;73092;49.132;8.920;2024-02-15T15:08:05;5.32;;;2.35;;
83199;SDS011;73092;49.132;8.920;2024-02-15T15:10:49;5.35;;;2.35;;
83199;SDS011;73092;49.132;8.920;2024-02-15T15:13:33;4.35;;;2.08;;
83199;SDS011;73092;49.132;8.920;2024-02-15T15:16:00;3.85;;;2.03;;
83199;SDS011;73092;49.132;8.920;2024-02-15T15:18:27;5.28;;;2.13;;